Christmas, Michigan
Current Conditions -  °F | °C
As of 10:54 PM on Sunday 23 Nov 2014 (Local Time) from KISQ Reporting Station
Light Rain Light Rain  
Wind Chill: 37°   Ceiling: 300
Heat Index: 42°   Visibility: 0.5mi
Dew Point: 42°   Wind: 8mph
Humidity: 100%   Direction: 110°ESE
Pressure: 29.31"   Gusts: NA
Location:  46.4479°N, 86.4779°W
Report Text: KISQ 240354Z AUTO 11007KT 1/2SM -RA OVC003 06/06 A2931 RMK AO2 P0006 T00560056
Loading
Personal Weather Stations






























Interactive Weather Map New forecast layout! Learn more

10-Day Weather Forecast

Advertisements
Track Severe Weather on mobile